Time;durP1;ratioP1;P1;durP2;ratioP2;P2;SDS_P1;SDS_P2;PMS_P1;PMS_P2;Temp;Humidity;BMP_temperature;BMP_pressure;BME280_temperature;BME280_humidity;BME280_pressure;Samples;Min_cycle;Max_cycle;Signal;HPM_P1;HPM_P2
2021/02/19 00:03:31;;;;;;;87.4;59.8;;;;;;;-0.86;100;99129.9;;;;
2021/02/19 00:13:28;;;;;;;91.6;70.7;;;;;;;-0.84;100;99120.73;;;;
2021/02/19 00:23:25;;;;;;;92.3;61.6;;;;;;;-0.92;100;99131.59;;;;
2021/02/19 00:33:23;;;;;;;102;67.8;;;;;;;-0.85;100;99121.75;;;;
2021/02/19 00:43:21;;;;;;;97.2;67.1;;;;;;;-0.99;100;99108.89;;;;
2021/02/19 00:53:18;;;;;;;79.6;59;;;;;;;-0.97;100;99098.91;;;;
2021/02/19 01:03:16;;;;;;;93.1;66.1;;;;;;;-1.03;100;99088.17;;;;
2021/02/19 01:13:13;;;;;;;87.5;67.9;;;;;;;-0.93;100;99077.06;;;;
2021/02/19 01:23:11;;;;;;;86.9;68.3;;;;;;;-1.02;100;99058.05;;;;
2021/02/19 01:33:08;;;;;;;91;65.5;;;;;;;-0.98;100;99061.06;;;;
2021/02/19 01:43:06;;;;;;;85.8;63;;;;;;;-0.81;100;99069.2;;;;
2021/02/19 01:53:03;;;;;;;82.2;53.9;;;;;;;-0.83;100;99077.34;;;;
2021/02/19 02:03:01;;;;;;;92.6;66.2;;;;;;;-0.86;100;99079.63;;;;
2021/02/19 02:12:58;;;;;;;73.9;53.9;;;;;;;-0.77;100;99065.9;;;;
2021/02/19 02:22:56;;;;;;;82.8;58.5;;;;;;;-0.71;100;99069.48;;;;
2021/02/19 02:32:53;;;;;;;72.1;49.9;;;;;;;-0.72;100;99055.44;;;;
2021/02/19 02:42:51;;;;;;;78.6;50.1;;;;;;;-0.76;100;99040.22;;;;
2021/02/19 02:52:48;;;;;;;72.2;55.7;;;;;;;-0.8;100;99033.78;;;;
2021/02/19 03:02:46;;;;;;;82.2;53.2;;;;;;;-0.83;100;99028.94;;;;
2021/02/19 03:12:43;;;;;;;70.5;50.8;;;;;;;-0.86;100;99014.3;;;;
2021/02/19 03:22:41;;;;;;;57.2;38.5;;;;;;;-0.72;100;99009.64;;;;
2021/02/19 03:32:43;;;;;;;52;35.7;;;;;;;-0.76;100;98990.75;;;;
2021/02/19 03:42:43;;;;;;;59.2;39.8;;;;;;;-0.83;100;98979.45;;;;
2021/02/19 03:52:33;;;;;;;58.6;36.9;;;;;;;-0.79;100;98977.98;;;;
2021/02/19 04:02:31;;;;;;;45;35.6;;;;;;;-0.81;100;98963.36;;;;
2021/02/19 04:12:28;;;;;;;42.1;30;;;;;;;-0.82;100;98953.8;;;;
2021/02/19 04:22:26;;;;;;;68.2;46.4;;;;;;;-0.8;100;98943.82;;;;
2021/02/19 04:32:24;;;;;;;54.7;40.3;;;;;;;-0.82;100;98937.92;;;;
2021/02/19 04:42:21;;;;;;;59;38.9;;;;;;;-0.94;100;98945.84;;;;
2021/02/19 04:52:19;;;;;;;89.3;54.6;;;;;;;-1.13;100;98946.9;;;;
2021/02/19 05:02:16;;;;;;;70.4;46.2;;;;;;;-1.32;100;98948.75;;;;
2021/02/19 05:12:14;;;;;;;57;43.5;;;;;;;-1.3;100;98944.06;;;;
2021/02/19 05:22:12;;;;;;;66.2;47.4;;;;;;;-1.4;100;98927.92;;;;
2021/02/19 05:32:09;;;;;;;75.9;51.8;;;;;;;-1.36;100;98925.64;;;;
2021/02/19 05:42:09;;;;;;;71.5;52.2;;;;;;;-1.57;100;98924.27;;;;
2021/02/19 05:52:04;;;;;;;76.5;52.6;;;;;;;-1.66;100;98966.02;;;;
2021/02/19 06:02:01;;;;;;;79.6;52.9;;;;;;;-1.66;100;98959.92;;;;
2021/02/19 06:12:00;;;;;;;81.8;56.3;;;;;;;-1.66;100;98950.16;;;;
2021/02/19 06:21:56;;;;;;;75;52.3;;;;;;;-1.6;100;98953.78;;;;
2021/02/19 06:32:00;;;;;;;86.4;58.1;;;;;;;-1.62;100;98969.84;;;;
2021/02/19 06:41:51;;;;;;;66.2;50.1;;;;;;;-1.49;100;98978.67;;;;
2021/02/19 06:51:49;;;;;;;81.1;52.4;;;;;;;-1.34;100;98976.45;;;;
2021/02/19 07:01:46;;;;;;;67.2;51.1;;;;;;;-1.3;100;98959.12;;;;
2021/02/19 07:11:44;;;;;;;85.2;58.9;;;;;;;-0.89;100;98963.67;;;;
2021/02/19 07:21:43;;;;;;;67.5;50.6;;;;;;;-0.17;100;98954.63;;;;
2021/02/19 07:31:43;;;;;;;82.9;55.5;;;;;;;-0.09;100;98956.95;;;;
2021/02/19 07:41:46;;;;;;;96.7;59;;;;;;;-0.24;99.84668;98951.28;;;;
2021/02/19 07:51:44;;;;;;;83.8;55.8;;;;;;;0.45;97.38184;98988.39;;;;
2021/02/19 08:01:32;;;;;;;67.8;50.9;;;;;;;0.54;96.12012;98994.16;;;;
2021/02/19 08:11:30;;;;;;;64.4;50.4;;;;;;;0.75;96.5498;99004.16;;;;
2021/02/19 08:21:28;;;;;;;72.2;52.9;;;;;;;1.04;95.00098;98996.25;;;;
2021/02/19 08:31:26;;;;;;;73.4;53.6;;;;;;;1.15;94.11426;98987.41;;;;
2021/02/19 08:41:24;;;;;;;83.6;59.1;;;;;;;1.66;92.64453;99005.91;;;;
2021/02/19 08:51:21;;;;;;;75.9;61.4;;;;;;;2.3;90.98535;98995.74;;;;
2021/02/19 09:01:19;;;;;;;85.1;61.8;;;;;;;2.03;89.81641;99000.93;;;;
2021/02/19 09:11:17;;;;;;;86.2;63.4;;;;;;;2.35;90.67676;99009.13;;;;
2021/02/19 09:21:15;;;;;;;92.6;66.8;;;;;;;2.76;89.91211;98997.19;;;;
2021/02/19 09:31:14;;;;;;;101.8;76.9;;;;;;;3.42;87.47656;98991.58;;;;
2021/02/19 09:41:12;;;;;;;92.8;75.9;;;;;;;3.73;86.72949;99002.52;;;;
2021/02/19 09:51:10;;;;;;;102.3;80.8;;;;;;;3.53;85.00781;99013.8;;;;
2021/02/19 10:01:08;;;;;;;132.4;91.7;;;;;;;3.4;86.85352;99014.98;;;;
2021/02/19 10:11:06;;;;;;;100.8;74.5;;;;;;;3.19;88.81934;99001.72;;;;
2021/02/19 10:21:05;;;;;;;99.4;77.8;;;;;;;2.91;90.43164;98994.73;;;;
2021/02/19 10:31:03;;;;;;;108.7;88.2;;;;;;;3.23;92.24219;99008.94;;;;
2021/02/19 10:41:01;;;;;;;115.2;79.4;;;;;;;3.98;89.99316;99011.56;;;;
2021/02/19 10:50:59;;;;;;;97;77.8;;;;;;;3.96;88.44824;99018.19;;;;
2021/02/19 11:00:57;;;;;;;91.5;71.9;;;;;;;3.73;89.05371;99024.66;;;;
2021/02/19 11:10:56;;;;;;;87;66.4;;;;;;;4.01;88.78027;99016.39;;;;
2021/02/19 11:20:54;;;;;;;79.4;59.4;;;;;;;4.02;88.39551;99023.34;;;;
2021/02/19 11:30:53;;;;;;;70.9;54.5;;;;;;;3.64;88.73633;99030.7;;;;
2021/02/19 11:40:51;;;;;;;75.4;63.4;;;;;;;3.22;91.12695;99023.33;;;;
2021/02/19 11:50:49;;;;;;;71;60.2;;;;;;;3.22;91.37012;99023.33;;;;
2021/02/19 12:00:47;;;;;;;78.8;60.5;;;;;;;3.52;91.35352;99001.52;;;;
2021/02/19 12:10:45;;;;;;;75;52.3;;;;;;;3.9;90.00977;99004.02;;;;
2021/02/19 12:20:43;;;;;;;83.4;67.6;;;;;;;3.73;91.14453;99007.86;;;;
2021/02/19 12:30:42;;;;;;;89.6;70;;;;;;;3.44;92.90625;99021.42;;;;
2021/02/19 12:40:43;;;;;;;82.3;63.4;;;;;;;3.37;93.49805;99025.34;;;;
2021/02/19 12:50:42;;;;;;;78.6;67.2;;;;;;;3.21;95.30371;99044.87;;;;
2021/02/19 13:00:41;;;;;;;83.3;58.4;;;;;;;3.19;95.8623;99044.33;;;;
2021/02/19 13:10:34;;;;;;;85.3;61.2;;;;;;;3.22;95.77344;99049.96;;;;
2021/02/19 13:20:32;;;;;;;72.4;61.1;;;;;;;3.05;96.31934;99050;;;;
2021/02/19 13:30:30;;;;;;;70.1;52.7;;;;;;;3.05;96.74902;99060.65;;;;
2021/02/19 13:40:29;;;;;;;82.8;63.3;;;;;;;3.12;96.78516;99081.8;;;;
2021/02/19 13:50:27;;;;;;;84.7;63.1;;;;;;;3.08;97.22754;99098.5;;;;
2021/02/19 14:00:25;;;;;;;65.4;58.2;;;;;;;3.02;98.19531;99110.92;;;;
2021/02/19 14:10:23;;;;;;;64.2;52;;;;;;;2.92;99.86914;99103.61;;;;
2021/02/19 14:20:21;;;;;;;73.7;55.1;;;;;;;2.98;99.66309;99107.97;;;;
2021/02/19 14:30:19;;;;;;;66.3;50.8;;;;;;;2.95;99.82227;99071.17;;;;
2021/02/19 14:40:17;;;;;;;60.9;54.3;;;;;;;2.83;100;99080.32;;;;
2021/02/19 14:50:15;;;;;;;56.3;47.9;;;;;;;2.87;100;99100.08;;;;
2021/02/19 15:00:13;;;;;;;59.5;45.9;;;;;;;3;100;99111.19;;;;
2021/02/19 15:10:11;;;;;;;64.2;47.3;;;;;;;2.87;100;99105.41;;;;
2021/02/19 15:20:09;;;;;;;59.6;46.8;;;;;;;3.12;100;99124.41;;;;
2021/02/19 15:30:07;;;;;;;94.3;64.9;;;;;;;3.03;100;99129.33;;;;
2021/02/19 15:40:05;;;;;;;57.5;51.1;;;;;;;2.99;99.98438;99136.19;;;;
2021/02/19 15:50:04;;;;;;;56.2;47.4;;;;;;;2.95;99.98535;99128.95;;;;
2021/02/19 16:00:02;;;;;;;63;47.3;;;;;;;2.57;100;99150.97;;;;
2021/02/19 16:10:00;;;;;;;73.5;57;;;;;;;2.34;100;99157.26;;;;
2021/02/19 16:19:58;;;;;;;63.9;47.9;;;;;;;2.08;100;99162.38;;;;
2021/02/19 16:29:56;;;;;;;61.5;50.6;;;;;;;1.96;100;99178.36;;;;
2021/02/19 16:39:56;;;;;;;61.4;49.7;;;;;;;1.77;100;99180.38;;;;
2021/02/19 16:49:52;;;;;;;71.2;57.6;;;;;;;1.75;100;99189.64;;;;
2021/02/19 16:59:50;;;;;;;72.7;61.5;;;;;;;1.63;100;99189.69;;;;
2021/02/19 17:09:48;;;;;;;80.1;71.7;;;;;;;1.49;100;99193.64;;;;
2021/02/19 17:19:46;;;;;;;87.7;70.8;;;;;;;1.3;100;99190.31;;;;
2021/02/19 17:29:44;;;;;;;94.7;77.8;;;;;;;1.27;100;99196.09;;;;
2021/02/19 17:39:42;;;;;;;90.1;69.1;;;;;;;1.2;100;99202.55;;;;
2021/02/19 17:49:39;;;;;;;101;77.1;;;;;;;1;100;99218.83;;;;
2021/02/19 17:59:39;;;;;;;97.4;75.5;;;;;;;0.88;100;99224.12;;;;
2021/02/19 18:09:35;;;;;;;74.7;66.2;;;;;;;0.93;100;99229.56;;;;
2021/02/19 18:19:34;;;;;;;76.3;57.3;;;;;;;0.96;100;99239.71;;;;
2021/02/19 18:29:31;;;;;;;95;75.9;;;;;;;1.03;100;99236.95;;;;
2021/02/19 18:39:28;;;;;;;100.3;79.3;;;;;;;1.03;100;99252.88;;;;
2021/02/19 18:49:26;;;;;;;138.2;107.6;;;;;;;0.87;100;99259.64;;;;
2021/02/19 18:59:24;;;;;;;130.3;100.9;;;;;;;0.92;100;99273.05;;;;
2021/02/19 19:09:22;;;;;;;113.3;101;;;;;;;0.86;100;99271.31;;;;
2021/02/19 19:19:20;;;;;;;82.4;63.4;;;;;;;0.87;100;99258.83;;;;
2021/02/19 19:29:18;;;;;;;108.8;82.5;;;;;;;0.98;100;99253.55;;;;
2021/02/19 19:39:16;;;;;;;86.7;68.9;;;;;;;0.99;100;99268.44;;;;
2021/02/19 19:49:14;;;;;;;92.1;72;;;;;;;0.87;100;99266.78;;;;
2021/02/19 19:59:11;;;;;;;93.1;71.3;;;;;;;0.72;100;99261.94;;;;
2021/02/19 20:09:09;;;;;;;73.5;57.6;;;;;;;0.84;100;99243.37;;;;
2021/02/19 20:19:07;;;;;;;76;54.5;;;;;;;1.02;100;99267.16;;;;
2021/02/19 20:29:05;;;;;;;91.2;81.4;;;;;;;0.79;100;99261.83;;;;
2021/02/19 20:39:03;;;;;;;81.7;69.3;;;;;;;0.7;100;99263.17;;;;
2021/02/19 20:49:01;;;;;;;79.4;60.4;;;;;;;0.62;100;99252.91;;;;
2021/02/19 20:58:58;;;;;;;50.8;42.1;;;;;;;0.91;100;99270.61;;;;
2021/02/19 21:08:56;;;;;;;54.7;45.9;;;;;;;0.99;100;99260.48;;;;
2021/02/19 21:18:54;;;;;;;100.3;85.5;;;;;;;0.8;100;99280.16;;;;
2021/02/19 21:28:52;;;;;;;119.7;102.6;;;;;;;0.78;100;99281.43;;;;
2021/02/19 21:38:50;;;;;;;151;119.6;;;;;;;0.77;100;99293.88;;;;
2021/02/19 21:48:48;;;;;;;138.1;109.9;;;;;;;0.43;100;99302.53;;;;
2021/02/19 21:58:45;;;;;;;132.8;104.5;;;;;;;0.39;100;99320.73;;;;
2021/02/19 22:08:43;;;;;;;164.4;122.2;;;;;;;0.21;100;99307.48;;;;
2021/02/19 22:18:41;;;;;;;141.2;113.9;;;;;;;0.21;100;99317.31;;;;
2021/02/19 22:28:39;;;;;;;141.4;100.1;;;;;;;0.31;100;99326.33;;;;
2021/02/19 22:38:39;;;;;;;113.4;90.3;;;;;;;0.61;100;99318.41;;;;
2021/02/19 22:48:34;;;;;;;98;82.7;;;;;;;0.85;100;99317.44;;;;
2021/02/19 22:58:32;;;;;;;102.1;82.5;;;;;;;0.96;100;99314.02;;;;
2021/02/19 23:08:30;;;;;;;97;79.2;;;;;;;1.02;100;99320.25;;;;
2021/02/19 23:18:28;;;;;;;95.4;84.1;;;;;;;1.2;100;99332.63;;;;
2021/02/19 23:28:26;;;;;;;91.1;79.1;;;;;;;1.35;100;99327.7;;;;
2021/02/19 23:38:24;;;;;;;85;71.1;;;;;;;1.38;100;99343.17;;;;
2021/02/19 23:48:22;;;;;;;108;80.5;;;;;;;1.28;100;99343.74;;;;
2021/02/19 23:58:20;;;;;;;97;73.3;;;;;;;1.36;100;99345.23;;;;
